createdAt,value
2022-11-19T00:01:29.085Z,13.07
2022-11-19T00:04:14.756Z,13.10
2022-11-19T00:07:00.719Z,13.10
2022-11-19T00:09:46.365Z,13.09
2022-11-19T00:12:50.434Z,13.07
2022-11-19T00:15:36.963Z,13.06
2022-11-19T00:18:23.400Z,13.09
2022-11-19T00:21:11.488Z,13.08
2022-11-19T00:23:57.475Z,13.07
2022-11-19T00:26:43.473Z,13.06
2022-11-19T00:29:29.363Z,12.98
2022-11-19T00:32:15.304Z,12.99
2022-11-19T00:35:01.224Z,12.99
2022-11-19T00:37:47.136Z,12.98
2022-11-19T00:40:32.915Z,12.95
2022-11-19T00:43:38.288Z,12.88
2022-11-19T00:46:27.991Z,12.89
2022-11-19T00:49:14.049Z,12.88
2022-11-19T00:52:00.763Z,12.78
2022-11-19T00:54:47.434Z,12.78
2022-11-19T00:57:33.318Z,12.82
2022-11-19T01:00:19.313Z,12.81
2022-11-19T01:03:06.001Z,12.80
2022-11-19T01:05:52.089Z,12.77
2022-11-19T01:08:38.194Z,12.76
2022-11-19T01:11:33.424Z,12.72
2022-11-19T01:14:19.550Z,12.77
2022-11-19T01:17:05.523Z,12.78
2022-11-19T01:19:51.311Z,12.74
2022-11-19T01:22:36.953Z,12.79
2022-11-19T01:25:22.890Z,12.80
2022-11-19T01:28:08.602Z,12.79
2022-11-19T01:30:54.413Z,12.81
2022-11-19T01:33:40.426Z,12.80
2022-11-19T01:36:28.459Z,12.79
2022-11-19T01:39:14.323Z,12.75
2022-11-19T01:42:00.193Z,12.78
2022-11-19T01:45:04.660Z,12.77
2022-11-19T01:47:51.947Z,12.77
2022-11-19T01:50:41.833Z,12.79
2022-11-19T01:53:30.105Z,12.80
2022-11-19T01:56:18.355Z,12.79
2022-11-19T01:59:09.442Z,12.79
2022-11-19T02:01:56.426Z,12.78
2022-11-19T02:04:42.975Z,12.78
2022-11-19T02:07:31.444Z,12.77
2022-11-19T02:10:17.935Z,12.74
2022-11-19T02:13:29.458Z,12.75
2022-11-19T02:16:32.953Z,12.69
2022-11-19T02:19:44.189Z,12.70
2022-11-19T02:22:36.376Z,12.70
2022-11-19T02:25:28.101Z,12.68
2022-11-19T02:28:53.717Z,12.64
2022-11-19T02:31:45.419Z,12.58
2022-11-19T02:34:37.634Z,12.59
2022-11-19T02:37:28.495Z,12.56
2022-11-19T02:40:20.437Z,12.50
2022-11-19T02:43:20.080Z,12.48
2022-11-19T02:46:09.890Z,12.44
2022-11-19T02:48:57.283Z,12.47
2022-11-19T02:51:43.733Z,12.46
2022-11-19T02:54:29.831Z,12.46
2022-11-19T02:57:15.696Z,12.40
2022-11-19T03:00:24.654Z,12.43
2022-11-19T03:03:33.718Z,12.40
2022-11-19T03:06:23.409Z,12.37
2022-11-19T03:09:09.330Z,12.29
2022-11-19T03:12:11.045Z,12.24
2022-11-19T03:15:56.134Z,12.25
2022-11-19T03:19:19.905Z,12.19
2022-11-19T03:22:16.028Z,12.16
2022-11-19T03:25:28.389Z,12.18
2022-11-19T03:28:17.991Z,12.18
2022-11-19T03:31:04.811Z,12.17
2022-11-19T03:33:52.664Z,12.17
2022-11-19T03:36:41.126Z,12.15
2022-11-19T03:39:27.675Z,12.10
2022-11-19T03:42:14.908Z,12.10
2022-11-19T03:45:05.358Z,12.04
2022-11-19T03:47:52.528Z,12.07
2022-11-19T03:50:47.690Z,12.02
2022-11-19T03:53:33.425Z,12.02
2022-11-19T03:56:22.376Z,11.97
2022-11-19T03:59:11.255Z,11.91
2022-11-19T04:02:00.840Z,11.84
2022-11-19T04:04:47.301Z,11.74
2022-11-19T04:07:33.475Z,11.75
2022-11-19T04:10:19.363Z,11.74
2022-11-19T04:13:05.232Z,11.75
2022-11-19T04:15:51.502Z,11.72
2022-11-19T04:18:37.234Z,11.70
2022-11-19T04:21:23.357Z,11.68
2022-11-19T04:24:09.702Z,11.66
2022-11-19T04:26:55.468Z,11.61
2022-11-19T04:29:41.363Z,11.60
2022-11-19T04:32:27.191Z,11.65
2022-11-19T04:35:14.200Z,11.60
2022-11-19T04:37:59.977Z,11.62
2022-11-19T04:40:47.503Z,11.64
2022-11-19T04:43:33.719Z,11.64
2022-11-19T04:46:19.530Z,11.64
2022-11-19T04:49:05.661Z,11.61
2022-11-19T04:51:51.697Z,11.55
2022-11-19T04:54:37.472Z,11.55
2022-11-19T04:57:23.411Z,11.52
2022-11-19T05:00:09.787Z,11.52
2022-11-19T05:02:55.875Z,11.49
2022-11-19T05:05:41.641Z,11.49
2022-11-19T05:08:27.338Z,11.49
2022-11-19T05:11:13.151Z,11.49
2022-11-19T05:13:59.113Z,11.53
2022-11-19T05:16:44.726Z,11.56
2022-11-19T05:19:30.673Z,11.55
2022-11-19T05:22:16.481Z,11.61
2022-11-19T05:25:02.490Z,11.63
2022-11-19T05:27:48.365Z,11.61
2022-11-19T05:30:34.251Z,11.66
2022-11-19T05:33:20.310Z,11.66
2022-11-19T05:36:06.917Z,11.63
2022-11-19T05:38:52.609Z,11.64
2022-11-19T05:41:38.289Z,11.62
2022-11-19T05:44:24.059Z,11.62
2022-11-19T05:47:09.729Z,11.62
2022-11-19T05:49:55.485Z,11.64
2022-11-19T05:52:41.272Z,11.67
2022-11-19T05:55:27.212Z,11.66
2022-11-19T05:58:13.996Z,11.60
2022-11-19T06:01:00.103Z,11.77
2022-11-19T06:03:45.725Z,11.78
2022-11-19T06:06:31.475Z,11.79
2022-11-19T06:09:17.753Z,11.82
2022-11-19T06:12:04.037Z,11.84
2022-11-19T06:14:49.938Z,11.85
2022-11-19T06:17:35.986Z,11.84
2022-11-19T06:20:22.218Z,11.90
2022-11-19T06:23:08.168Z,11.88
2022-11-19T06:25:54.700Z,11.93
2022-11-19T06:28:40.540Z,11.94
2022-11-19T06:31:27.021Z,11.92
2022-11-19T06:34:13.333Z,11.92
2022-11-19T06:36:59.123Z,11.97
2022-11-19T06:39:45.092Z,11.98
2022-11-19T06:42:36.637Z,11.99
2022-11-19T06:45:22.830Z,12.04
2022-11-19T06:48:08.691Z,12.08
2022-11-19T06:50:54.414Z,12.11
2022-11-19T06:53:40.169Z,12.09
2022-11-19T06:56:26.077Z,12.16
2022-11-19T06:59:12.147Z,12.16
2022-11-19T07:01:57.816Z,12.18
2022-11-19T07:04:43.696Z,12.20
2022-11-19T07:07:29.465Z,12.23
2022-11-19T07:10:15.648Z,12.27
2022-11-19T07:13:02.042Z,12.32
2022-11-19T07:15:47.971Z,12.30
2022-11-19T07:18:33.802Z,12.35
2022-11-19T07:21:19.848Z,12.38
2022-11-19T07:24:09.090Z,12.43
2022-11-19T07:26:55.802Z,12.46
2022-11-19T07:29:41.971Z,12.48
2022-11-19T07:32:27.626Z,12.51
2022-11-19T07:35:13.489Z,12.57
2022-11-19T07:37:59.562Z,12.61
2022-11-19T07:40:53.689Z,12.65
2022-11-19T07:43:39.276Z,12.70
2022-11-19T07:46:25.229Z,12.81
2022-11-19T07:49:11.673Z,12.86
2022-11-19T07:51:57.419Z,12.87
2022-11-19T07:54:43.177Z,12.93
2022-11-19T07:57:30.477Z,12.99
2022-11-19T08:00:16.653Z,13.01
2022-11-19T08:03:02.685Z,12.98
2022-11-19T08:05:48.687Z,13.06
2022-11-19T08:08:35.329Z,13.09
2022-11-19T08:11:21.015Z,13.15
2022-11-19T08:14:07.026Z,13.12
2022-11-19T08:17:11.731Z,13.20
2022-11-19T08:19:57.683Z,13.25
2022-11-19T08:22:43.492Z,13.35
2022-11-19T08:25:29.593Z,13.41
2022-11-19T08:28:16.044Z,13.59
2022-11-19T08:31:09.002Z,13.68
2022-11-19T08:33:55.428Z,13.69
2022-11-19T08:36:41.557Z,13.74
2022-11-19T08:39:27.367Z,13.78
2022-11-19T08:42:31.539Z,13.81
2022-11-19T08:45:20.809Z,13.81
2022-11-19T08:48:13.507Z,13.89
2022-11-19T08:51:03.923Z,13.91
2022-11-19T08:53:52.621Z,14.00
2022-11-19T08:56:38.833Z,14.02
2022-11-19T08:59:24.833Z,14.03
2022-11-19T09:02:11.219Z,14.05
2022-11-19T09:04:57.436Z,14.08
2022-11-19T09:07:43.372Z,14.23
2022-11-19T09:10:29.178Z,14.38
2022-11-19T09:13:14.997Z,14.49
2022-11-19T09:16:01.969Z,14.63
2022-11-19T09:18:48.251Z,14.78
2022-11-19T09:21:34.218Z,14.83
2022-11-19T09:24:20.969Z,14.92
2022-11-19T09:27:07.082Z,14.97
2022-11-19T09:29:52.799Z,15.05
2022-11-19T09:32:38.666Z,15.14
2022-11-19T09:35:25.274Z,15.29
2022-11-19T09:38:11.189Z,15.41
2022-11-19T09:40:57.875Z,15.55
2022-11-19T09:43:57.312Z,15.73
2022-11-19T09:47:07.579Z,15.98
2022-11-19T09:50:06.594Z,16.30
2022-11-19T09:53:03.085Z,16.54
2022-11-19T09:55:52.283Z,16.95
2022-11-19T09:58:41.816Z,17.28
2022-11-19T10:01:30.355Z,17.59
2022-11-19T10:04:21.598Z,17.70
2022-11-19T10:07:13.356Z,17.74
2022-11-19T10:10:23.380Z,17.79
2022-11-19T10:13:56.798Z,17.80
2022-11-19T10:16:55.185Z,17.89
2022-11-19T10:19:59.929Z,17.92
2022-11-19T10:23:04.579Z,17.97
2022-11-19T10:26:01.226Z,17.91
2022-11-19T10:28:57.699Z,17.97
2022-11-19T10:31:46.353Z,17.91
2022-11-19T10:34:34.989Z,17.90
2022-11-19T10:37:22.863Z,17.79
2022-11-19T10:40:13.729Z,17.63
2022-11-19T10:43:08.440Z,17.52
2022-11-19T10:46:00.517Z,17.43
2022-11-19T10:48:52.694Z,17.39
2022-11-19T10:51:40.761Z,17.34
2022-11-19T10:54:28.178Z,17.36
2022-11-19T10:57:17.749Z,17.46
2022-11-19T11:00:04.646Z,17.59
2022-11-19T11:02:56.354Z,17.81
2022-11-19T11:06:06.292Z,18.07
2022-11-19T11:08:54.712Z,18.24
2022-11-19T11:11:59.116Z,18.33
2022-11-19T11:14:54.943Z,18.47
2022-11-19T11:17:42.591Z,18.53
2022-11-19T11:20:29.253Z,18.59
2022-11-19T11:23:22.915Z,18.63
2022-11-19T11:26:10.938Z,18.67
2022-11-19T11:29:24.300Z,18.73
2022-11-19T11:32:30.904Z,18.77
2022-11-19T11:35:34.435Z,18.80
2022-11-19T11:38:22.481Z,18.74
2022-11-19T11:41:53.719Z,18.62
2022-11-19T11:44:23.019Z,18.53
2022-11-19T11:47:17.869Z,18.37
2022-11-19T11:50:07.916Z,18.30
2022-11-19T11:52:55.569Z,18.16
2022-11-19T11:55:41.513Z,18.05
2022-11-19T11:58:32.523Z,17.91
2022-11-19T12:01:18.490Z,17.75
2022-11-19T12:04:04.899Z,17.68
2022-11-19T12:07:17.104Z,17.53
2022-11-19T12:10:16.088Z,17.40
2022-11-19T12:13:41.179Z,17.24
2022-11-19T12:16:54.933Z,17.13
2022-11-19T12:19:52.919Z,17.07
2022-11-19T12:22:58.624Z,17.02
2022-11-19T12:25:50.226Z,17.00
2022-11-19T12:28:48.594Z,16.94
2022-11-19T12:31:53.417Z,16.86
2022-11-19T12:34:51.404Z,16.79
2022-11-19T12:38:17.165Z,16.68
2022-11-19T12:41:08.969Z,16.64
2022-11-19T12:44:02.496Z,16.57
2022-11-19T12:46:59.070Z,16.54
2022-11-19T12:50:15.479Z,16.46
2022-11-19T12:53:23.107Z,16.38
2022-11-19T12:56:27.485Z,16.41
2022-11-19T12:59:28.717Z,16.38
2022-11-19T13:02:24.750Z,16.29
2022-11-19T13:05:17.755Z,16.35
2022-11-19T13:08:13.209Z,16.34
2022-11-19T13:11:18.756Z,16.26
2022-11-19T13:14:26.148Z,16.18
2022-11-19T13:17:37.568Z,16.01
2022-11-19T13:20:23.595Z,15.93
2022-11-19T13:23:14.316Z,15.83
2022-11-19T13:26:07.376Z,15.74
2022-11-19T13:29:03.055Z,15.63
2022-11-19T13:31:55.612Z,15.65
2022-11-19T13:34:45.425Z,15.60
2022-11-19T13:37:56.866Z,15.55
2022-11-19T13:41:08.260Z,15.47
2022-11-19T13:44:17.559Z,15.40
2022-11-19T13:47:03.758Z,15.28
2022-11-19T13:49:57.591Z,15.20
2022-11-19T13:52:52.858Z,15.10
2022-11-19T13:55:41.241Z,15.03
2022-11-19T13:58:32.968Z,14.98
2022-11-19T14:01:31.712Z,14.93
2022-11-19T14:04:18.090Z,14.88
2022-11-19T14:07:30.679Z,14.84
2022-11-19T14:10:24.971Z,14.78
2022-11-19T14:13:13.985Z,14.71
2022-11-19T14:16:51.471Z,14.65
2022-11-19T14:20:10.547Z,14.60
2022-11-19T14:23:17.678Z,14.58
2022-11-19T14:26:21.762Z,14.57
2022-11-19T14:29:26.370Z,14.55
2022-11-19T14:32:12.718Z,14.54
2022-11-19T14:35:01.332Z,14.55
2022-11-19T14:37:50.927Z,14.50
2022-11-19T14:40:42.465Z,14.51
2022-11-19T14:44:08.696Z,14.47
2022-11-19T14:46:54.704Z,14.44
2022-11-19T14:49:40.964Z,14.47
2022-11-19T14:52:40.202Z,14.41
2022-11-19T14:55:32.565Z,14.38
2022-11-19T14:58:22.024Z,14.40
2022-11-19T15:01:10.948Z,14.37
2022-11-19T15:04:03.044Z,14.32
2022-11-19T15:06:49.416Z,14.31
2022-11-19T15:09:53.151Z,14.24
2022-11-19T15:13:02.547Z,14.21
2022-11-19T15:15:51.070Z,14.16
2022-11-19T15:18:41.571Z,14.11
2022-11-19T15:22:08.374Z,14.04
2022-11-19T15:25:21.622Z,14.01
2022-11-19T15:28:42.514Z,13.99
2022-11-19T15:31:40.092Z,13.97
2022-11-19T15:35:09.617Z,13.94
2022-11-19T15:38:06.773Z,13.92
2022-11-19T15:40:56.311Z,13.89
2022-11-19T15:43:49.244Z,13.91
2022-11-19T15:46:54.391Z,13.88
2022-11-19T15:49:40.427Z,13.90
2022-11-19T15:52:32.044Z,13.84
2022-11-19T15:55:26.725Z,13.86
2022-11-19T15:58:15.193Z,13.82
2022-11-19T16:01:01.002Z,13.73
2022-11-19T16:03:47.625Z,13.74
2022-11-19T16:06:33.901Z,13.72
2022-11-19T16:09:23.342Z,13.75
2022-11-19T16:12:38.095Z,13.73
2022-11-19T16:15:46.101Z,13.73
2022-11-19T16:18:32.340Z,13.72
2022-11-19T16:21:31.726Z,13.69
2022-11-19T16:24:38.071Z,13.67
2022-11-19T16:27:25.699Z,13.61
2022-11-19T16:30:25.308Z,13.58
2022-11-19T16:33:24.955Z,13.57
2022-11-19T16:36:13.393Z,13.51
2022-11-19T16:38:59.428Z,13.43
2022-11-19T16:42:04.993Z,13.46
2022-11-19T16:44:57.545Z,13.45
2022-11-19T16:47:52.617Z,13.43
2022-11-19T16:50:45.344Z,13.39
2022-11-19T16:53:53.951Z,13.38
2022-11-19T16:56:44.824Z,13.30
2022-11-19T16:59:31.683Z,13.32
2022-11-19T17:02:19.966Z,13.30
2022-11-19T17:05:09.198Z,13.33
2022-11-19T17:08:06.883Z,13.35
2022-11-19T17:11:33.779Z,13.35
2022-11-19T17:14:31.386Z,13.32
2022-11-19T17:17:44.020Z,13.36
2022-11-19T17:20:30.707Z,13.38
2022-11-19T17:23:19.925Z,13.38
2022-11-19T17:26:16.363Z,13.36
2022-11-19T17:29:11.340Z,13.34
2022-11-19T17:31:57.864Z,13.35
2022-11-19T17:34:47.077Z,13.34
2022-11-19T17:37:32.868Z,13.28
2022-11-19T17:40:18.731Z,13.30
2022-11-19T17:43:28.463Z,13.32
2022-11-19T17:46:14.483Z,13.32
2022-11-19T17:49:00.619Z,13.32
2022-11-19T17:51:46.836Z,13.26
2022-11-19T17:54:33.368Z,13.28
2022-11-19T17:57:19.665Z,13.29
2022-11-19T18:00:06.434Z,13.28
2022-11-19T18:02:52.435Z,13.24
2022-11-19T18:05:39.889Z,13.21
2022-11-19T18:08:26.271Z,13.20
2022-11-19T18:11:24.596Z,13.12
2022-11-19T18:14:12.641Z,13.12
2022-11-19T18:16:58.436Z,13.12
2022-11-19T18:19:44.224Z,13.11
2022-11-19T18:22:30.481Z,13.09
2022-11-19T18:25:18.890Z,13.06
2022-11-19T18:28:05.261Z,12.94
2022-11-19T18:30:51.434Z,12.97
2022-11-19T18:33:37.288Z,12.90
2022-11-19T18:36:24.437Z,12.89
2022-11-19T18:39:10.754Z,12.84
2022-11-19T18:41:56.405Z,12.82
2022-11-19T18:44:43.745Z,12.81
2022-11-19T18:47:29.702Z,12.77
2022-11-19T18:50:16.793Z,12.80
2022-11-19T18:53:03.156Z,12.83
2022-11-19T18:55:49.318Z,12.82
2022-11-19T18:58:35.284Z,12.85
2022-11-19T19:01:23.858Z,12.84
2022-11-19T19:04:14.196Z,12.83
2022-11-19T19:07:00.909Z,12.81
2022-11-19T19:09:47.241Z,12.76
2022-11-19T19:12:33.297Z,12.74
2022-11-19T19:15:19.330Z,12.69
2022-11-19T19:18:07.899Z,12.63
2022-11-19T19:20:53.921Z,12.59
2022-11-19T19:23:40.325Z,12.58
2022-11-19T19:26:26.332Z,12.60
2022-11-19T19:29:12.877Z,12.59
2022-11-19T19:31:58.729Z,12.56
2022-11-19T19:34:44.679Z,12.56
2022-11-19T19:37:30.523Z,12.48
2022-11-19T19:40:16.684Z,12.47
2022-11-19T19:43:06.211Z,12.46
2022-11-19T19:45:52.579Z,12.43
2022-11-19T19:48:38.341Z,12.43
2022-11-19T19:51:26.649Z,12.39
2022-11-19T19:54:13.040Z,12.38
2022-11-19T19:56:59.371Z,12.35
2022-11-19T19:59:45.408Z,12.38
2022-11-19T20:02:31.234Z,12.38
2022-11-19T20:05:16.998Z,12.34
2022-11-19T20:08:03.159Z,12.32
2022-11-19T20:10:49.394Z,12.29
2022-11-19T20:13:36.868Z,12.25
2022-11-19T20:16:26.824Z,12.25
2022-11-19T20:19:14.940Z,12.24
2022-11-19T20:22:00.881Z,12.21
2022-11-19T20:24:46.679Z,12.20
2022-11-19T20:27:32.607Z,12.18
2022-11-19T20:30:18.341Z,12.15
2022-11-19T20:33:04.479Z,12.17
2022-11-19T20:35:54.597Z,12.20
2022-11-19T20:38:41.818Z,12.21
2022-11-19T20:41:47.312Z,12.18
2022-11-19T20:44:33.235Z,12.18
2022-11-19T20:47:19.067Z,12.16
2022-11-19T20:50:05.384Z,12.16
2022-11-19T20:52:54.463Z,12.22
2022-11-19T20:55:53.257Z,12.20
2022-11-19T20:58:57.437Z,12.20
2022-11-19T21:01:43.227Z,12.23
2022-11-19T21:04:31.390Z,12.20
2022-11-19T21:07:17.927Z,12.22
2022-11-19T21:10:07.799Z,12.28
2022-11-19T21:13:03.326Z,12.28
2022-11-19T21:15:49.244Z,12.29
2022-11-19T21:18:37.052Z,12.32
2022-11-19T21:21:25.746Z,12.34
2022-11-19T21:24:11.926Z,12.32
2022-11-19T21:26:57.941Z,12.35
2022-11-19T21:29:43.662Z,12.39
2022-11-19T21:32:29.532Z,12.40
2022-11-19T21:35:15.400Z,12.44
2022-11-19T21:38:01.664Z,12.45
2022-11-19T21:40:49.514Z,12.44
2022-11-19T21:43:35.669Z,12.49
2022-11-19T21:46:21.402Z,12.48
2022-11-19T21:49:07.175Z,12.44
2022-11-19T21:51:53.324Z,12.52
2022-11-19T21:54:39.424Z,12.55
2022-11-19T21:57:26.120Z,12.50
2022-11-19T22:00:12.953Z,12.56
2022-11-19T22:02:59.065Z,12.59
2022-11-19T22:05:44.982Z,12.59
2022-11-19T22:08:35.472Z,12.57
2022-11-19T22:11:32.287Z,12.59
2022-11-19T22:14:18.810Z,12.57
2022-11-19T22:17:04.943Z,12.55
2022-11-19T22:19:52.114Z,12.55
2022-11-19T22:22:37.935Z,12.61
2022-11-19T22:25:23.882Z,12.61
2022-11-19T22:28:09.673Z,12.63
2022-11-19T22:30:55.445Z,12.66
2022-11-19T22:33:41.704Z,12.68
2022-11-19T22:36:31.255Z,12.68
2022-11-19T22:39:18.602Z,12.72
2022-11-19T22:42:05.124Z,12.69
2022-11-19T22:44:51.890Z,12.73
2022-11-19T22:47:37.707Z,12.68
2022-11-19T22:50:23.416Z,12.73
2022-11-19T22:53:09.679Z,12.73
2022-11-19T22:56:00.805Z,12.71
2022-11-19T22:58:47.273Z,12.75
2022-11-19T23:01:34.748Z,12.79
2022-11-19T23:04:20.543Z,12.78
2022-11-19T23:07:06.777Z,12.79
2022-11-19T23:09:52.834Z,12.78
2022-11-19T23:12:57.471Z,12.82
2022-11-19T23:15:43.460Z,12.81
2022-11-19T23:18:31.026Z,12.86
2022-11-19T23:21:20.253Z,12.87
2022-11-19T23:24:07.053Z,12.88
2022-11-19T23:26:53.234Z,12.89
2022-11-19T23:29:39.240Z,12.91
2022-11-19T23:32:24.919Z,12.88
2022-11-19T23:35:10.648Z,12.90
2022-11-19T23:37:56.749Z,12.87
2022-11-19T23:40:42.658Z,12.94
2022-11-19T23:43:29.215Z,12.94
2022-11-19T23:46:17.167Z,12.92
2022-11-19T23:49:04.264Z,12.90
2022-11-19T23:51:49.963Z,12.82
2022-11-19T23:54:35.581Z,12.85
2022-11-19T23:57:21.485Z,12.81
